Current Weather

Sharurah

Sharurah, Saudi Arabia (OESH)

Report from: Wednesday, September 28, 2022 1:00 PM +03
Current time: Wednesday, September 28, 2022 1:27 PM +03

Nearby weather
Weather history
Weather forecast

Temperature37.0°C (98.6°F)
Heat index34.4°C (93.9°F)
Dew point4.0°C (39.2°F)
Winds 5 kts (2.6 m/s, 5.8 mph) North-Northeast (20°)
Clouds Sky clear
Altimeter29.85 in.Hg (1011 mB)
Relative humidity13 %
Density altitude2,685 ft. (819 m)
Remarks Ceiling and visibility OK
No significant changes expected in the next two hours
Flight conditions Visual Meteorological Conditions
Raw dataOESH 281000Z 02005KT CAVOK 37/04 Q1011 NOSIG
An error has occurred. This application may no longer respond until reloaded. Reload 🗙